N926 LEIB-LEVC

Flight info

Callsign N926
Flight time N/A
Altitude 7000
Route DCT
Aircraft PC12/L-VGD/A

Departure

Time N/A
Airport Ibiza Airport (LEIB)

Arrival

Time 2026-05-08 17:18
Airport Valencia Airport (LEVC)
Time Latitude Longitude Altitude Speed Heading
2026-05-08 17:05 39.36370 0.00476 6500 ft 240 kts 301°
2026-05-08 17:05 39.37270 -0.01337 6324 ft 240 kts 301°
2026-05-08 17:05 39.38176 -0.03136 6148 ft 237 kts 301°
2026-05-08 17:06 39.39077 -0.04907 5973 ft 234 kts 301°
2026-05-08 17:06 39.39969 -0.06661 5798 ft 233 kts 301°
2026-05-08 17:06 39.40862 -0.08409 5621 ft 233 kts 301°
2026-05-08 17:06 39.41753 -0.10152 5446 ft 232 kts 301°
2026-05-08 17:07 39.42630 -0.11870 5277 ft 232 kts 301°
2026-05-08 17:07 39.43514 -0.13614 5099 ft 232 kts 301°
2026-05-08 17:07 39.44397 -0.15360 4923 ft 232 kts 301°
2026-05-08 17:07 39.45278 -0.17107 4747 ft 232 kts 301°
2026-05-08 17:08 39.46157 -0.18852 4572 ft 231 kts 301°
2026-05-08 17:08 39.47033 -0.20595 4397 ft 231 kts 301°
2026-05-08 17:08 39.47911 -0.22340 4221 ft 231 kts 301°
2026-05-08 17:08 39.48640 -0.24135 4048 ft 228 kts 291°
2026-05-08 17:09 39.49226 -0.26023 3980 ft 223 kts 289°
2026-05-08 17:09 39.49781 -0.27887 3881 ft 221 kts 289°
2026-05-08 17:09 39.50325 -0.29714 3703 ft 214 kts 289°
2026-05-08 17:09 39.50852 -0.31492 3526 ft 209 kts 289°
2026-05-08 17:10 39.51348 -0.33150 3345 ft 188 kts 289°
2026-05-08 17:10 39.51804 -0.34655 3168 ft 172 kts 289°
2026-05-08 17:10 39.52227 -0.36048 2991 ft 161 kts 289°
2026-05-08 17:10 39.52618 -0.37329 2970 ft 146 kts 289°
2026-05-08 17:11 39.52979 -0.38513 2978 ft 142 kts 289°
2026-05-08 17:11 39.53335 -0.39672 2975 ft 136 kts 289°
2026-05-08 17:11 39.53680 -0.40796 2972 ft 133 kts 289°
2026-05-08 17:11 39.54020 -0.41894 2974 ft 131 kts 289°
2026-05-08 17:12 39.54359 -0.42991 2968 ft 131 kts 289°
2026-05-08 17:12 39.54699 -0.44079 2972 ft 130 kts 289°
2026-05-08 17:12 39.55040 -0.45161 2958 ft 128 kts 289°
2026-05-08 17:12 39.55371 -0.46211 2967 ft 128 kts 289°
2026-05-08 17:13 39.55706 -0.47278 2968 ft 128 kts 289°
2026-05-08 17:13 39.55996 -0.48353 2961 ft 124 kts 270°
2026-05-08 17:13 39.55749 -0.49363 2944 ft 120 kts 240°
2026-05-08 17:13 39.55389 -0.50377 2853 ft 128 kts 241°
2026-05-08 17:14 39.55007 -0.51447 2760 ft 132 kts 241°
2026-05-08 17:14 39.54618 -0.52525 2651 ft 129 kts 241°
2026-05-08 17:14 39.54243 -0.53553 2543 ft 123 kts 241°
2026-05-08 17:14 39.53892 -0.54534 2449 ft 122 kts 242°
2026-05-08 17:15 39.53537 -0.55510 2337 ft 117 kts 241°
2026-05-08 17:15 39.53202 -0.56442 2229 ft 113 kts 242°
2026-05-08 17:15 39.52657 -0.56993 2125 ft 101 kts 174°
2026-05-08 17:15 39.52137 -0.56499 2043 ft 96 kts 123°
2026-05-08 17:16 39.51745 -0.55791 1898 ft 95 kts 124°
2026-05-08 17:16 39.51432 -0.55078 1748 ft 90 kts 110°
2026-05-08 17:16 39.51200 -0.54330 1597 ft 89 kts 108°
2026-05-08 17:16 39.50986 -0.53598 1408 ft 90 kts 111°
2026-05-08 17:17 39.50708 -0.52862 1188 ft 93 kts 114°
2026-05-08 17:17 39.50446 -0.52094 940 ft 93 kts 112°
2026-05-08 17:17 39.50148 -0.51342 691 ft 93 kts 116°
2026-05-08 17:17 39.49863 -0.50603 454 ft 90 kts 113°
2026-05-08 17:18 39.49596 -0.49900 280 ft 85 kts 114°
2026-05-08 17:18 39.49345 -0.49225 228 ft 80 kts 115°
2026-05-08 17:18 39.49127 -0.48649 214 ft 50 kts 117°
2026-05-08 17:18 39.48995 -0.48319 210 ft 23 kts 114°
2026-05-08 17:19 39.48975 -0.48157 204 ft 8 kts 81°
2026-05-08 17:19 39.48979 -0.48124 205 ft 3 kts 79°
2026-05-08 17:19 39.48980 -0.48117 205 ft 0 kts 79°
2026-05-08 17:21 39.48981 -0.48114 205 ft 2 kts 79°
2026-05-08 17:21 39.48986 -0.48078 210 ft 6 kts 78°
2026-05-08 17:21 39.48997 -0.48021 205 ft 8 kts 76°
2026-05-08 17:22 39.49012 -0.47944 203 ft 10 kts 75°
2026-05-08 17:22 39.49031 -0.47848 202 ft 12 kts 75°
2026-05-08 17:22 39.49048 -0.47741 200 ft 13 kts 79°
2026-05-08 17:22 39.49056 -0.47623 198 ft 13 kts 117°
2026-05-08 17:23 39.49017 -0.47573 198 ft 8 kts 176°
2026-05-08 17:23 39.48984 -0.47607 199 ft 5 kts 229°
2026-05-08 17:23 39.48957 -0.47599 200 ft 3 kts 88°
2026-05-08 17:23 39.48975 -0.47582 199 ft 4 kts 27°